Magdalena, Bolivia
Current Conditions -  °F | °C
As of 7:00 PM on Wednesday 26 Nov 2014 (Local Time) from SLTR Reporting Station
Light Rain Light Rain  
Wind Chill: 72°   Ceiling: 7000
Heat Index: 72°   Visibility: 6mi
Dew Point: 70°   Wind: 8mph
Humidity: 94%   Direction: 350°N
Pressure: 29.74"   Gusts: NA
Location:  13.35°S, 64.13°W
Report Text: SLTR 262300Z 35007KT 9999 -RA FEW004 OVC070 22/21 Q1007
Loading
Personal Weather Stations






























Interactive Weather Map New forecast layout! Learn more

10-Day Weather Forecast

Advertisements
Track Severe Weather on mobile